createdAt,value
2023-03-29T00:00:14.380Z,100.00
2023-03-29T00:02:42.624Z,100.00
2023-03-29T00:05:12.351Z,100.00
2023-03-29T00:07:40.450Z,100.00
2023-03-29T00:10:11.960Z,100.00
2023-03-29T00:12:41.639Z,100.00
2023-03-29T00:15:10.612Z,100.00
2023-03-29T00:17:39.982Z,100.00
2023-03-29T00:20:10.332Z,100.00
2023-03-29T00:22:39.866Z,100.00
2023-03-29T00:25:10.048Z,100.00
2023-03-29T00:27:38.735Z,100.00
2023-03-29T00:30:08.973Z,100.00
2023-03-29T00:32:37.199Z,100.00
2023-03-29T00:35:06.421Z,100.00
2023-03-29T00:37:35.611Z,100.00
2023-03-29T00:40:07.810Z,100.00
2023-03-29T00:42:37.411Z,100.00
2023-03-29T00:45:08.738Z,100.00
2023-03-29T00:47:41.567Z,100.00
2023-03-29T00:50:15.843Z,100.00
2023-03-29T00:52:50.626Z,100.00
2023-03-29T00:55:22.819Z,100.00
2023-03-29T00:57:55.773Z,100.00
2023-03-29T01:00:34.120Z,100.00
2023-03-29T01:03:07.145Z,100.00
2023-03-29T01:05:40.492Z,100.00
2023-03-29T01:08:12.526Z,100.00
2023-03-29T01:10:45.035Z,100.00
2023-03-29T01:13:18.386Z,100.00
2023-03-29T01:15:47.997Z,100.00
2023-03-29T01:18:15.946Z,100.00
2023-03-29T01:21:15.211Z,100.00
2023-03-29T01:24:22.191Z,100.00
2023-03-29T01:26:58.499Z,100.00
2023-03-29T01:29:30.365Z,100.00
2023-03-29T01:32:03.306Z,100.00
2023-03-29T01:34:37.343Z,100.00
2023-03-29T01:37:10.215Z,100.00
2023-03-29T01:39:38.094Z,100.00
2023-03-29T01:42:16.651Z,100.00
2023-03-29T01:44:52.370Z,100.00
2023-03-29T01:47:28.767Z,100.00
2023-03-29T01:50:06.686Z,100.00
2023-03-29T01:52:37.614Z,100.00
2023-03-29T01:55:09.977Z,100.00
2023-03-29T01:57:40.905Z,100.00
2023-03-29T02:00:15.359Z,100.00
2023-03-29T02:02:45.479Z,100.00
2023-03-29T02:05:16.272Z,100.00
2023-03-29T02:07:46.196Z,100.00
2023-03-29T02:10:15.579Z,100.00
2023-03-29T02:12:43.570Z,100.00
2023-03-29T02:15:15.848Z,100.00
2023-03-29T02:17:44.965Z,100.00
2023-03-29T02:20:19.562Z,100.00
2023-03-29T02:22:53.382Z,100.00
2023-03-29T02:25:22.845Z,100.00
2023-03-29T02:27:51.035Z,100.00
2023-03-29T02:30:24.693Z,100.00
2023-03-29T02:32:59.518Z,100.00
2023-03-29T02:35:35.135Z,100.00
2023-03-29T02:38:06.465Z,100.00
2023-03-29T02:40:36.018Z,100.00
2023-03-29T02:43:04.978Z,100.00
2023-03-29T02:45:37.036Z,100.00
2023-03-29T02:48:10.086Z,100.00
2023-03-29T02:50:40.861Z,100.00
2023-03-29T02:53:17.265Z,100.00
2023-03-29T02:55:46.920Z,100.00
2023-03-29T02:58:15.682Z,100.00
2023-03-29T03:00:47.390Z,100.00
2023-03-29T03:03:16.855Z,100.00
2023-03-29T03:05:45.026Z,100.00
2023-03-29T03:08:14.103Z,100.00
2023-03-29T03:10:42.217Z,100.00
2023-03-29T03:13:10.200Z,100.00
2023-03-29T03:15:42.674Z,100.00
2023-03-29T03:18:12.794Z,100.00
2023-03-29T03:20:40.953Z,100.00
2023-03-29T03:23:10.755Z,100.00
2023-03-29T03:25:38.787Z,100.00
2023-03-29T03:28:06.909Z,100.00
2023-03-29T03:30:35.070Z,100.00
2023-03-29T03:33:02.976Z,100.00
2023-03-29T03:35:32.399Z,100.00
2023-03-29T03:38:00.338Z,100.00
2023-03-29T03:40:28.448Z,100.00
2023-03-29T03:42:56.359Z,100.00
2023-03-29T03:45:24.786Z,100.00
2023-03-29T03:47:52.954Z,100.00
2023-03-29T03:50:20.897Z,100.00
2023-03-29T03:52:50.236Z,100.00
2023-03-29T03:55:18.276Z,100.00
2023-03-29T03:57:48.004Z,100.00
2023-03-29T04:00:21.364Z,100.00
2023-03-29T04:02:49.918Z,100.00
2023-03-29T04:05:18.252Z,100.00
2023-03-29T04:07:46.141Z,100.00
2023-03-29T04:10:15.816Z,100.00
2023-03-29T04:12:45.269Z,100.00
2023-03-29T04:15:13.820Z,100.00
2023-03-29T04:17:41.825Z,100.00
2023-03-29T04:20:12.676Z,100.00
2023-03-29T04:22:42.678Z,100.00
2023-03-29T04:25:11.765Z,100.00
2023-03-29T04:27:41.420Z,100.00
2023-03-29T04:30:10.690Z,100.00
2023-03-29T04:32:38.674Z,100.00
2023-03-29T04:35:06.961Z,100.00
2023-03-29T04:37:35.248Z,100.00
2023-03-29T04:40:04.898Z,100.00
2023-03-29T04:42:34.293Z,100.00
2023-03-29T04:45:03.554Z,100.00
2023-03-29T04:47:31.543Z,100.00
2023-03-29T04:49:59.491Z,100.00
2023-03-29T04:52:27.548Z,100.00
2023-03-29T04:54:55.810Z,100.00
2023-03-29T04:57:23.848Z,100.00
2023-03-29T04:59:51.906Z,100.00
2023-03-29T05:02:22.136Z,100.00
2023-03-29T05:04:50.485Z,100.00
2023-03-29T05:07:19.530Z,100.00
2023-03-29T05:09:47.503Z,100.00
2023-03-29T05:12:15.486Z,100.00
2023-03-29T05:14:43.376Z,100.00
2023-03-29T05:17:11.319Z,100.00
2023-03-29T05:19:40.568Z,100.00
2023-03-29T05:22:09.235Z,100.00
2023-03-29T05:24:37.498Z,100.00
2023-03-29T05:27:05.490Z,100.00
2023-03-29T05:29:33.786Z,100.00
2023-03-29T05:32:01.783Z,100.00
2023-03-29T05:34:31.063Z,100.00
2023-03-29T05:37:01.523Z,100.00
2023-03-29T05:39:29.616Z,100.00
2023-03-29T05:41:58.737Z,100.00
2023-03-29T05:44:26.854Z,100.00
2023-03-29T05:46:54.806Z,100.00
2023-03-29T05:49:22.687Z,100.00
2023-03-29T05:51:52.061Z,100.00
2023-03-29T05:54:21.599Z,100.00
2023-03-29T05:56:49.669Z,100.00
2023-03-29T05:59:18.143Z,100.00
2023-03-29T06:01:47.048Z,100.00
2023-03-29T06:04:15.908Z,100.00
2023-03-29T06:06:43.943Z,100.00
2023-03-29T06:09:12.004Z,100.00
2023-03-29T06:11:41.494Z,100.00
2023-03-29T06:14:09.441Z,100.00
2023-03-29T06:16:38.085Z,100.00
2023-03-29T06:19:07.360Z,100.00
2023-03-29T06:21:35.734Z,100.00
2023-03-29T06:24:04.142Z,100.00
2023-03-29T06:26:32.230Z,100.00
2023-03-29T06:29:01.613Z,100.00
2023-03-29T06:31:30.128Z,100.00
2023-03-29T06:33:58.796Z,99.12
2023-03-29T06:36:26.990Z,99.10
2023-03-29T06:38:55.439Z,99.13
2023-03-29T06:41:23.809Z,98.69
2023-03-29T06:43:51.847Z,97.93
2023-03-29T06:46:21.114Z,97.50
2023-03-29T06:48:49.048Z,97.09
2023-03-29T06:51:17.252Z,94.36
2023-03-29T06:53:45.689Z,94.25
2023-03-29T06:56:14.629Z,93.25
2023-03-29T06:58:43.008Z,90.33
2023-03-29T07:01:11.607Z,86.81
2023-03-29T07:03:41.367Z,87.16
2023-03-29T07:06:11.791Z,86.46
2023-03-29T07:08:43.770Z,82.72
2023-03-29T07:11:13.866Z,82.45
2023-03-29T07:13:42.700Z,83.78
2023-03-29T07:16:12.751Z,83.35
2023-03-29T07:18:44.109Z,82.93
2023-03-29T07:21:14.089Z,81.63
2023-03-29T07:23:42.483Z,81.65
2023-03-29T07:26:11.232Z,81.40
2023-03-29T07:28:41.013Z,80.36
2023-03-29T07:31:11.982Z,79.54
2023-03-29T07:33:40.842Z,78.95
2023-03-29T07:36:11.745Z,79.63
2023-03-29T07:38:39.699Z,78.01
2023-03-29T07:41:09.003Z,78.37
2023-03-29T07:43:36.951Z,77.47
2023-03-29T07:46:07.016Z,77.42
2023-03-29T07:48:37.128Z,77.80
2023-03-29T07:51:06.181Z,76.21
2023-03-29T07:53:35.548Z,76.09
2023-03-29T07:56:03.553Z,75.28
2023-03-29T07:58:31.480Z,74.90
2023-03-29T08:01:01.351Z,74.38
2023-03-29T08:03:29.576Z,73.97
2023-03-29T08:05:57.513Z,71.75
2023-03-29T08:08:25.393Z,69.72
2023-03-29T08:10:54.748Z,69.32
2023-03-29T08:13:22.602Z,69.63
2023-03-29T08:15:50.670Z,68.27
2023-03-29T08:18:18.742Z,68.30
2023-03-29T08:20:46.788Z,68.21
2023-03-29T08:23:14.719Z,68.63
2023-03-29T08:25:42.570Z,66.62
2023-03-29T08:28:15.440Z,67.02
2023-03-29T08:30:43.545Z,67.69
2023-03-29T08:33:12.265Z,67.06
2023-03-29T08:35:40.480Z,67.44
2023-03-29T08:38:08.560Z,67.36
2023-03-29T08:40:36.737Z,65.96
2023-03-29T08:43:37.129Z,65.59
2023-03-29T08:46:19.365Z,64.99
2023-03-29T08:48:53.810Z,63.32
2023-03-29T08:51:24.823Z,56.64
2023-03-29T08:53:57.557Z,56.17
2023-03-29T08:56:31.518Z,56.89
2023-03-29T08:59:02.337Z,55.90
2023-03-29T09:01:35.423Z,56.40
2023-03-29T09:04:09.031Z,56.02
2023-03-29T09:06:43.143Z,55.71
2023-03-29T09:09:15.871Z,55.96
2023-03-29T09:11:58.525Z,56.55
2023-03-29T09:14:47.409Z,56.14
2023-03-29T09:17:28.604Z,56.05
2023-03-29T09:20:06.431Z,54.90
2023-03-29T09:22:45.820Z,53.25
2023-03-29T09:25:24.917Z,54.54
2023-03-29T09:28:01.448Z,54.45
2023-03-29T09:30:33.174Z,53.84
2023-03-29T09:33:11.831Z,54.27
2023-03-29T09:35:43.440Z,53.56
2023-03-29T09:38:14.025Z,52.52
2023-03-29T09:40:46.384Z,53.51
2023-03-29T09:43:18.428Z,53.08
2023-03-29T09:45:54.737Z,50.95
2023-03-29T09:48:26.217Z,51.63
2023-03-29T09:50:54.346Z,50.54
2023-03-29T09:53:23.114Z,49.69
2023-03-29T09:55:52.483Z,50.66
2023-03-29T09:58:24.679Z,50.92
2023-03-29T10:00:53.222Z,51.15
2023-03-29T10:03:23.907Z,49.92
2023-03-29T10:05:55.297Z,50.01
2023-03-29T10:08:28.329Z,49.97
2023-03-29T10:10:58.615Z,50.23
2023-03-29T10:13:30.660Z,49.86
2023-03-29T10:16:02.549Z,50.28
2023-03-29T10:18:33.782Z,50.27
2023-03-29T10:21:03.739Z,49.15
2023-03-29T10:23:33.925Z,48.17
2023-03-29T10:26:04.305Z,49.02
2023-03-29T10:28:34.329Z,48.30
2023-03-29T10:31:04.118Z,45.79
2023-03-29T10:33:35.845Z,46.45
2023-03-29T10:36:08.112Z,46.28
2023-03-29T10:38:37.684Z,47.01
2023-03-29T10:41:10.063Z,46.67
2023-03-29T10:43:39.723Z,46.72
2023-03-29T10:46:10.878Z,45.99
2023-03-29T10:48:41.191Z,45.93
2023-03-29T10:51:15.917Z,45.93
2023-03-29T10:53:44.178Z,46.16
2023-03-29T10:56:29.874Z,44.69
2023-03-29T10:59:24.359Z,45.28
2023-03-29T11:02:26.092Z,44.70
2023-03-29T11:05:06.542Z,44.07
2023-03-29T11:07:37.085Z,44.27
2023-03-29T11:10:26.104Z,43.88
2023-03-29T11:13:00.893Z,44.38
2023-03-29T11:15:42.252Z,43.75
2023-03-29T11:18:30.570Z,44.07
2023-03-29T11:21:10.712Z,43.70
2023-03-29T11:23:50.849Z,43.17
2023-03-29T11:26:24.608Z,43.66
2023-03-29T11:28:58.999Z,44.12
2023-03-29T11:31:38.977Z,43.84
2023-03-29T11:34:22.081Z,44.17
2023-03-29T11:36:58.563Z,44.95
2023-03-29T11:39:34.092Z,44.25
2023-03-29T11:42:09.358Z,43.94
2023-03-29T11:44:38.618Z,43.96
2023-03-29T11:47:14.032Z,43.94
2023-03-29T11:49:46.897Z,44.33
2023-03-29T11:52:19.862Z,43.97
2023-03-29T11:54:53.552Z,43.21
2023-03-29T11:57:27.237Z,42.64
2023-03-29T12:00:00.492Z,43.61
2023-03-29T12:02:33.706Z,42.25
2023-03-29T12:05:08.180Z,41.76
2023-03-29T12:07:43.121Z,42.65
2023-03-29T12:10:18.542Z,40.98
2023-03-29T12:12:50.066Z,42.04
2023-03-29T12:15:21.532Z,41.69
2023-03-29T12:18:00.254Z,40.83
2023-03-29T12:20:32.108Z,41.23
2023-03-29T12:23:01.918Z,41.78
2023-03-29T12:25:34.160Z,41.28
2023-03-29T12:28:17.536Z,40.96
2023-03-29T12:30:57.513Z,41.02
2023-03-29T12:33:42.656Z,41.90
2023-03-29T12:36:21.782Z,41.62
2023-03-29T12:38:53.220Z,41.85
2023-03-29T12:41:22.899Z,40.81
2023-03-29T12:43:52.136Z,41.53
2023-03-29T12:46:24.080Z,42.42
2023-03-29T12:48:57.154Z,42.14
2023-03-29T12:51:31.844Z,42.39
2023-03-29T12:54:09.789Z,41.56
2023-03-29T12:56:41.543Z,41.45
2023-03-29T12:59:25.702Z,41.61
2023-03-29T13:02:01.107Z,41.17
2023-03-29T13:04:39.504Z,41.52
2023-03-29T13:07:15.530Z,42.54
2023-03-29T13:09:53.030Z,42.09
2023-03-29T13:12:26.758Z,42.84
2023-03-29T13:14:56.773Z,43.21
2023-03-29T13:17:35.280Z,41.55
2023-03-29T13:20:34.929Z,42.20
2023-03-29T13:23:18.546Z,42.48
2023-03-29T13:26:02.346Z,42.83
2023-03-29T13:28:38.413Z,43.33
2023-03-29T13:31:19.364Z,43.33
2023-03-29T13:33:58.562Z,43.03
2023-03-29T13:36:39.724Z,43.58
2023-03-29T13:39:08.479Z,43.35
2023-03-29T13:41:49.274Z,42.99
2023-03-29T13:44:29.523Z,43.05
2023-03-29T13:47:06.900Z,42.50
2023-03-29T13:49:36.728Z,42.50
2023-03-29T13:52:16.058Z,41.71
2023-03-29T13:54:54.466Z,41.91
2023-03-29T13:57:32.837Z,41.69
2023-03-29T14:00:07.235Z,41.66
2023-03-29T14:02:41.910Z,42.77
2023-03-29T14:05:14.385Z,42.23
2023-03-29T14:07:50.060Z,40.49
2023-03-29T14:10:29.197Z,40.55
2023-03-29T14:13:04.325Z,40.01
2023-03-29T14:15:45.820Z,39.69
2023-03-29T14:18:17.604Z,39.81
2023-03-29T14:20:50.307Z,40.17
2023-03-29T14:23:22.522Z,40.28
2023-03-29T14:25:51.051Z,40.59
2023-03-29T14:28:25.336Z,39.95
2023-03-29T14:30:53.732Z,39.96
2023-03-29T14:33:29.760Z,41.10
2023-03-29T14:36:00.871Z,41.25
2023-03-29T14:38:29.888Z,42.04
2023-03-29T14:41:03.497Z,40.45
2023-03-29T14:43:33.256Z,39.98
2023-03-29T14:46:06.360Z,40.88
2023-03-29T14:48:36.562Z,41.03
2023-03-29T14:51:10.536Z,40.95
2023-03-29T14:53:39.583Z,40.89
2023-03-29T14:56:13.217Z,40.07
2023-03-29T14:58:47.613Z,41.34
2023-03-29T15:01:18.498Z,40.77
2023-03-29T15:03:54.820Z,40.61
2023-03-29T15:06:25.300Z,40.31
2023-03-29T15:09:04.493Z,41.03
2023-03-29T15:11:35.213Z,40.81
2023-03-29T15:14:08.975Z,41.23
2023-03-29T15:16:41.415Z,41.74
2023-03-29T15:19:17.712Z,42.36
2023-03-29T15:21:48.998Z,42.54
2023-03-29T15:24:23.373Z,42.35
2023-03-29T15:27:03.212Z,42.50
2023-03-29T15:29:41.925Z,42.16
2023-03-29T15:32:11.696Z,42.53
2023-03-29T15:34:39.689Z,43.28
2023-03-29T15:37:08.133Z,42.82
2023-03-29T15:39:36.655Z,42.91
2023-03-29T15:42:04.587Z,43.03
2023-03-29T15:44:35.326Z,43.11
2023-03-29T15:47:04.956Z,43.76
2023-03-29T15:49:32.929Z,44.00
2023-03-29T15:52:00.863Z,44.71
2023-03-29T15:54:30.948Z,45.27
2023-03-29T15:57:04.568Z,45.39
2023-03-29T15:59:33.151Z,45.90
2023-03-29T16:02:02.041Z,46.18
2023-03-29T16:04:31.354Z,45.39
2023-03-29T16:06:59.486Z,46.05
2023-03-29T16:09:27.486Z,45.67
2023-03-29T16:11:55.341Z,46.43
2023-03-29T16:14:27.127Z,46.27
2023-03-29T16:16:55.868Z,46.75
2023-03-29T16:19:25.701Z,47.30
2023-03-29T16:21:55.958Z,47.98
2023-03-29T16:24:26.467Z,48.20
2023-03-29T16:26:56.482Z,48.06
2023-03-29T16:29:24.661Z,48.58
2023-03-29T16:31:53.419Z,49.03
2023-03-29T16:34:22.895Z,48.73
2023-03-29T16:36:53.007Z,49.43
2023-03-29T16:39:22.444Z,49.77
2023-03-29T16:41:50.690Z,49.59
2023-03-29T16:44:23.924Z,49.96
2023-03-29T16:46:54.000Z,50.12
2023-03-29T16:49:22.489Z,50.17
2023-03-29T16:51:50.449Z,50.35
2023-03-29T16:54:18.963Z,50.78
2023-03-29T16:56:48.303Z,50.88
2023-03-29T16:59:16.712Z,50.71
2023-03-29T17:01:45.040Z,50.29
2023-03-29T17:04:13.035Z,50.73
2023-03-29T17:06:42.100Z,50.96
2023-03-29T17:09:17.751Z,51.37
2023-03-29T17:11:46.130Z,51.74
2023-03-29T17:14:15.694Z,51.67
2023-03-29T17:16:43.832Z,50.50
2023-03-29T17:19:11.793Z,50.41
2023-03-29T17:21:39.708Z,50.97
2023-03-29T17:24:09.773Z,50.32
2023-03-29T17:26:38.571Z,50.10
2023-03-29T17:29:06.732Z,50.64
2023-03-29T17:31:36.642Z,50.57
2023-03-29T17:34:06.204Z,50.25
2023-03-29T17:36:34.177Z,50.47
2023-03-29T17:39:02.945Z,50.61
2023-03-29T17:41:31.318Z,50.03
2023-03-29T17:43:59.397Z,49.77
2023-03-29T17:46:27.355Z,50.73
2023-03-29T17:48:59.146Z,50.00
2023-03-29T17:51:28.275Z,50.58
2023-03-29T17:53:58.706Z,50.33
2023-03-29T17:56:26.700Z,50.02
2023-03-29T17:58:54.882Z,50.32
2023-03-29T18:01:23.012Z,50.97
2023-03-29T18:03:51.198Z,51.17
2023-03-29T18:06:21.003Z,50.83
2023-03-29T18:08:49.138Z,50.97
2023-03-29T18:11:22.426Z,50.57
2023-03-29T18:13:51.044Z,50.81
2023-03-29T18:16:19.366Z,51.53
2023-03-29T18:18:47.621Z,50.86
2023-03-29T18:21:16.086Z,50.82
2023-03-29T18:23:47.690Z,51.22
2023-03-29T18:26:16.813Z,51.72
2023-03-29T18:28:46.668Z,51.17
2023-03-29T18:31:15.364Z,51.73
2023-03-29T18:33:43.403Z,51.96
2023-03-29T18:36:13.565Z,51.93
2023-03-29T18:38:43.421Z,52.12
2023-03-29T18:41:14.340Z,52.36
2023-03-29T18:43:44.405Z,52.28
2023-03-29T18:46:12.553Z,52.69
2023-03-29T18:48:41.147Z,53.17
2023-03-29T18:51:10.400Z,52.59
2023-03-29T18:53:42.059Z,53.50
2023-03-29T18:56:10.188Z,53.27
2023-03-29T18:58:39.564Z,53.24
2023-03-29T19:01:09.685Z,53.09
2023-03-29T19:03:37.983Z,53.33
2023-03-29T19:06:07.147Z,52.67
2023-03-29T19:08:36.736Z,52.95
2023-03-29T19:11:07.154Z,53.76
2023-03-29T19:13:35.864Z,53.11
2023-03-29T19:16:05.892Z,53.60
2023-03-29T19:18:34.690Z,54.01
2023-03-29T19:21:02.679Z,54.27
2023-03-29T19:23:30.594Z,54.73
2023-03-29T19:26:01.339Z,54.29
2023-03-29T19:28:30.501Z,54.01
2023-03-29T19:31:00.723Z,54.42
2023-03-29T19:33:30.542Z,54.85
2023-03-29T19:35:58.647Z,54.79
2023-03-29T19:38:26.624Z,54.23
2023-03-29T19:40:54.599Z,54.61
2023-03-29T19:43:22.602Z,55.12
2023-03-29T19:45:52.442Z,55.33
2023-03-29T19:48:23.350Z,54.88
2023-03-29T19:50:53.304Z,55.85
2023-03-29T19:53:21.530Z,55.97
2023-03-29T19:55:49.925Z,55.94
2023-03-29T19:58:17.843Z,55.97
2023-03-29T20:00:46.708Z,55.65
2023-03-29T20:03:15.705Z,56.20
2023-03-29T20:05:44.305Z,56.40
2023-03-29T20:08:13.761Z,55.92
2023-03-29T20:10:41.701Z,56.00
2023-03-29T20:13:09.682Z,56.46
2023-03-29T20:15:37.613Z,56.71
2023-03-29T20:18:06.105Z,56.28
2023-03-29T20:20:35.757Z,56.23
2023-03-29T20:23:05.508Z,56.68
2023-03-29T20:25:36.268Z,56.75
2023-03-29T20:28:04.788Z,56.46
2023-03-29T20:30:32.818Z,56.96
2023-03-29T20:33:00.948Z,56.52
2023-03-29T20:35:28.925Z,56.70
2023-03-29T20:37:56.885Z,57.02
2023-03-29T20:40:25.146Z,56.61
2023-03-29T20:42:55.010Z,56.54
2023-03-29T20:45:22.975Z,57.30
2023-03-29T20:47:57.816Z,57.04
2023-03-29T20:50:29.319Z,56.56
2023-03-29T20:53:02.299Z,57.75
2023-03-29T20:55:33.265Z,57.53
2023-03-29T20:58:03.412Z,57.30
2023-03-29T21:00:35.430Z,56.69
2023-03-29T21:03:04.645Z,57.68
2023-03-29T21:05:34.016Z,57.45
2023-03-29T21:08:02.505Z,57.02
2023-03-29T21:10:30.943Z,57.18
2023-03-29T21:13:00.642Z,57.22
2023-03-29T21:15:31.975Z,57.27
2023-03-29T21:17:59.993Z,57.06
2023-03-29T21:20:28.663Z,57.57
2023-03-29T21:22:56.586Z,57.32
2023-03-29T21:25:24.504Z,57.66
2023-03-29T21:27:52.395Z,56.91
2023-03-29T21:30:20.282Z,57.41
2023-03-29T21:32:49.640Z,57.19
2023-03-29T21:35:17.711Z,57.53
2023-03-29T21:37:45.620Z,56.87
2023-03-29T21:40:14.638Z,57.57
2023-03-29T21:42:42.577Z,57.30
2023-03-29T21:45:11.971Z,57.03
2023-03-29T21:47:39.924Z,57.59
2023-03-29T21:50:10.793Z,57.51
2023-03-29T21:52:39.071Z,57.11
2023-03-29T21:55:07.754Z,57.75
2023-03-29T21:57:35.681Z,57.79
2023-03-29T22:00:05.534Z,57.86
2023-03-29T22:02:33.507Z,57.64
2023-03-29T22:05:01.413Z,58.18
2023-03-29T22:07:30.706Z,58.09
2023-03-29T22:10:04.275Z,58.56
2023-03-29T22:12:34.532Z,57.93
2023-03-29T22:15:02.955Z,58.42
2023-03-29T22:17:30.996Z,57.77
2023-03-29T22:19:59.013Z,58.78
2023-03-29T22:22:27.091Z,57.92
2023-03-29T22:24:57.044Z,58.59
2023-03-29T22:27:25.248Z,58.79
2023-03-29T22:29:53.243Z,58.61
2023-03-29T22:32:21.169Z,58.71
2023-03-29T22:34:49.120Z,58.55
2023-03-29T22:37:18.003Z,58.39
2023-03-29T22:39:46.465Z,58.65
2023-03-29T22:42:16.087Z,59.11
2023-03-29T22:44:44.150Z,59.05
2023-03-29T22:47:12.153Z,59.54
2023-03-29T22:49:40.038Z,59.74
2023-03-29T22:52:08.074Z,59.65
2023-03-29T22:54:36.039Z,59.68
2023-03-29T22:57:04.057Z,59.51
2023-03-29T22:59:33.411Z,59.55
2023-03-29T23:02:01.477Z,59.95
2023-03-29T23:04:29.522Z,59.76
2023-03-29T23:06:58.426Z,60.33
2023-03-29T23:09:26.346Z,60.89
2023-03-29T23:11:54.208Z,60.84
2023-03-29T23:14:22.752Z,61.25
2023-03-29T23:16:52.107Z,61.66
2023-03-29T23:19:20.162Z,62.20
2023-03-29T23:21:48.068Z,62.83
2023-03-29T23:24:19.069Z,64.46
2023-03-29T23:26:49.043Z,64.99
2023-03-29T23:29:16.917Z,65.48
2023-03-29T23:31:45.408Z,67.36
2023-03-29T23:34:14.908Z,68.03
2023-03-29T23:36:42.812Z,68.85
2023-03-29T23:39:10.727Z,69.64
2023-03-29T23:41:40.252Z,70.91
2023-03-29T23:44:08.565Z,71.58
2023-03-29T23:46:36.519Z,72.35
2023-03-29T23:49:04.494Z,73.10
2023-03-29T23:51:35.060Z,73.96
2023-03-29T23:54:05.661Z,74.69
2023-03-29T23:56:33.578Z,74.82
2023-03-29T23:59:01.507Z,75.52
